PWSweather.com
Personal Weather Stations
Station Observations
KCTHAMDEN
Dunbar Hill, Hamden, CT 06514

Dunbar HillHamden, CT 06514

Lat: 41.365437, Lon: -72.956532

Elevation: 200

Station Type: Davis Vantage Pro2+

www.hamdenweather.com

High Low Average
Temperature 55.4°F13.0°F 45.8°F7.7°F 49.7°F9.8°F
Dew Point 52.2°F11.2°F 40.9°F4.9°F 46.9°F8.3°F
Winds 7.0 mph NE11.3 mph NE Calm Calm 2.2 mph 3.5 mph
Wind Gusts 10.0 mph16.1 mph -- 4.0 mph6.4 mph
Humidity 97% 73% 90%
Pressure 29.99 in1015.60 in 29.91 in1012.90 in -
Precipitation 0.04 in1.00 in - -
Hour Temp Dew Point Humidity Winds Wind Gusts Pressure Precip Precip Rate Daily Precip Total
12:00 AM 49.1°F9.5°C 48.3°F9.1°C 97% 0.3 mph NE0.5 kmh NE 1.0 mph1.6 kmh 29.95 in1014.2 mb - 0.00 in0.0 mm 0.00 in0.0 mm
12:15 AM 49.1°F9.5°C 48.3°F9.1°C 97% 1.4 mph N2.3 kmh N 3.0 mph4.8 kmh 29.94 in1013.9 mb - 0.00 in0.0 mm 0.00 in0.0 mm
12:30 AM 49.0°F9.4°C 48.2°F9.0°C 97% 0.2 mph N0.3 kmh N 1.0 mph1.6 kmh 29.94 in1013.9 mb - 0.00 in0.0 mm 0.00 in0.0 mm
12:45 AM 49.0°F9.4°C 48.2°F9.0°C 97% 2.1 mph N3.4 kmh N 3.0 mph4.8 kmh 29.94 in1013.9 mb - 0.00 in0.0 mm 0.00 in0.0 mm
01:00 AM 48.9°F9.4°C 48.1°F8.9°C 97% 0.9 mph NW1.4 kmh NW 1.0 mph1.6 kmh 29.95 in1014.2 mb - 0.00 in0.0 mm 0.00 in0.0 mm
01:15 AM 49.0°F9.4°C 48.2°F9.0°C 97% 0.3 mph NW0.5 kmh NW 2.0 mph3.2 kmh 29.95 in1014.2 mb - 0.00 in0.0 mm 0.00 in0.0 mm
01:30 AM 49.0°F9.4°C 48.1°F8.9°C 97% 1.9 mph N3.1 kmh N 3.0 mph4.8 kmh 29.94 in1013.9 mb - 0.00 in0.0 mm 0.00 in0.0 mm
01:45 AM 48.9°F9.4°C 48.1°F8.9°C 97% 0.5 mph N0.8 kmh N 1.0 mph1.6 kmh 29.94 in1013.9 mb - 0.00 in0.0 mm 0.00 in0.0 mm
02:00 AM 48.9°F9.4°C 48.1°F8.9°C 97% 2.2 mph NE3.5 kmh NE 6.0 mph9.7 kmh 29.92 in1013.2 mb - 0.00 in0.0 mm 0.00 in0.0 mm
02:15 AM 48.9°F9.4°C 48.1°F8.9°C 97% 3.1 mph N5.0 kmh N 5.0 mph8.0 kmh 29.93 in1013.5 mb - 0.00 in0.0 mm 0.00 in0.0 mm
02:30 AM 48.9°F9.4°C 48.1°F8.9°C 97% 1.6 mph N2.6 kmh N 2.0 mph3.2 kmh 29.93 in1013.5 mb - 0.00 in0.0 mm 0.00 in0.0 mm
02:45 AM 48.9°F9.4°C 48.1°F8.9°C 97% 2.6 mph WNW4.2 kmh WNW 3.0 mph4.8 kmh 29.94 in1013.9 mb - 0.00 in0.0 mm 0.00 in0.0 mm
03:00 AM 48.9°F9.4°C 48.1°F8.9°C 97% 2.7 mph NW4.3 kmh NW 4.0 mph6.4 kmh 29.93 in1013.5 mb - 0.00 in0.0 mm 0.00 in0.0 mm
03:15 AM 48.8°F9.3°C 48.0°F8.9°C 97% 2.2 mph NW3.5 kmh NW 4.0 mph6.4 kmh 29.94 in1013.9 mb - 0.00 in0.0 mm 0.00 in0.0 mm
03:30 AM 48.7°F9.3°C 47.9°F8.8°C 97% 0.4 mph NNE0.6 kmh NNE 1.0 mph1.6 kmh 29.93 in1013.5 mb - 0.01 in0.3 mm 0.01 in0.3 mm
03:45 AM 48.7°F9.3°C 47.9°F8.8°C 97% 1.3 mph N2.1 kmh N 2.0 mph3.2 kmh 29.92 in1013.2 mb - 0.00 in0.0 mm 0.01 in0.3 mm
04:00 AM 48.5°F9.2°C 47.7°F8.7°C 97% 4.6 mph WNW7.4 kmh WNW 5.0 mph8.0 kmh 29.92 in1013.2 mb - 0.00 in0.0 mm 0.01 in0.3 mm
04:15 AM 48.2°F9.0°C 47.4°F8.6°C 97% 1.8 mph N2.9 kmh N 5.0 mph8.0 kmh 29.92 in1013.2 mb - 0.00 in0.0 mm 0.01 in0.3 mm
04:30 AM 47.7°F8.7°C 46.9°F8.3°C 97% 2.8 mph NE4.5 kmh NE 3.0 mph4.8 kmh 29.92 in1013.2 mb - 0.00 in0.0 mm 0.01 in0.3 mm
04:45 AM 47.3°F8.5°C 46.5°F8.1°C 97% 3.3 mph WNW5.3 kmh WNW 6.0 mph9.7 kmh 29.91 in1012.9 mb - 0.00 in0.0 mm 0.01 in0.3 mm
05:00 AM 46.9°F8.3°C 46.1°F7.8°C 97% 3.8 mph N6.1 kmh N 7.0 mph11.3 kmh 29.91 in1012.9 mb - 0.00 in0.0 mm 0.01 in0.3 mm
05:15 AM 46.6°F8.1°C 45.8°F7.7°C 97% 3.3 mph NW5.3 kmh NW 5.0 mph8.0 kmh 29.92 in1013.2 mb - 0.00 in0.0 mm 0.01 in0.3 mm
05:30 AM 46.3°F7.9°C 45.5°F7.5°C 97% 2.4 mph NW3.9 kmh NW 7.0 mph11.3 kmh 29.91 in1012.9 mb - 0.00 in0.0 mm 0.01 in0.3 mm
05:45 AM 46.1°F7.8°C 45.0°F7.2°C 96% 1.1 mph NNE1.8 kmh NNE 3.0 mph4.8 kmh 29.91 in1012.9 mb - 0.00 in0.0 mm 0.01 in0.3 mm
06:00 AM 46.0°F7.8°C 44.9°F7.2°C 96% 5.3 mph NNE8.5 kmh NNE 10.0 mph16.1 kmh 29.92 in1013.2 mb - 0.00 in0.0 mm 0.01 in0.3 mm
06:15 AM 45.9°F7.7°C 44.8°F7.1°C 96% 2.4 mph NNE3.9 kmh NNE 3.0 mph4.8 kmh 29.92 in1013.2 mb - 0.00 in0.0 mm 0.01 in0.3 mm
06:30 AM 45.9°F7.7°C 44.8°F7.1°C 96% 2.3 mph NE3.7 kmh NE 3.0 mph4.8 kmh 29.91 in1012.9 mb - 0.00 in0.0 mm 0.01 in0.3 mm
06:45 AM 45.8°F7.7°C 44.7°F7.1°C 96% 2.6 mph N4.2 kmh N 4.0 mph6.4 kmh 29.92 in1013.2 mb - 0.00 in0.0 mm 0.01 in0.3 mm
07:00 AM 45.9°F7.7°C 44.8°F7.1°C 96% 5.0 mph NW8.0 kmh NW 6.0 mph9.7 kmh 29.92 in1013.2 mb - 0.00 in0.0 mm 0.01 in0.3 mm
07:15 AM 46.0°F7.8°C 44.9°F7.2°C 96% 5.0 mph NE8.0 kmh NE 8.0 mph12.9 kmh 29.93 in1013.5 mb - 0.00 in0.0 mm 0.01 in0.3 mm
07:30 AM 46.3°F7.9°C 45.2°F7.3°C 96% 2.9 mph WNW4.7 kmh WNW 5.0 mph8.0 kmh 29.94 in1013.9 mb - 0.00 in0.0 mm 0.01 in0.3 mm
07:45 AM 46.6°F8.1°C 45.5°F7.5°C 96% 4.5 mph NNE7.2 kmh NNE 6.0 mph9.7 kmh 29.93 in1013.5 mb - 0.00 in0.0 mm 0.01 in0.3 mm
08:00 AM 46.7°F8.2°C 45.6°F7.6°C 96% 2.3 mph WNW3.7 kmh WNW 3.0 mph4.8 kmh 29.94 in1013.9 mb - 0.00 in0.0 mm 0.01 in0.3 mm
08:15 AM 46.7°F8.2°C 45.6°F7.6°C 96% 2.6 mph N4.2 kmh N 3.0 mph4.8 kmh 29.93 in1013.5 mb - 0.00 in0.0 mm 0.01 in0.3 mm
08:30 AM 46.7°F8.2°C 45.3°F7.4°C 95% 7.0 mph NE11.3 kmh NE 9.0 mph14.5 kmh 29.93 in1013.5 mb - 0.00 in0.0 mm 0.01 in0.3 mm
08:45 AM 46.8°F8.2°C 45.4°F7.4°C 95% 1.0 mph NE1.6 kmh NE 7.0 mph11.3 kmh 29.94 in1013.9 mb - 0.00 in0.0 mm 0.01 in0.3 mm
09:00 AM 46.8°F8.2°C 45.2°F7.3°C 94% 6.0 mph N9.7 kmh N 10.0 mph16.1 kmh 29.95 in1014.2 mb - 0.00 in0.0 mm 0.01 in0.3 mm
09:15 AM 46.9°F8.3°C 45.3°F7.4°C 94% 3.8 mph WNW6.1 kmh WNW 6.0 mph9.7 kmh 29.95 in1014.2 mb - 0.00 in0.0 mm 0.01 in0.3 mm
09:30 AM 47.3°F8.5°C 45.7°F7.6°C 94% 5.1 mph N8.2 kmh N 8.0 mph12.9 kmh 29.94 in1013.9 mb - 0.00 in0.0 mm 0.01 in0.3 mm
09:45 AM 47.3°F8.5°C 45.3°F7.4°C 93% 5.2 mph NW8.4 kmh NW 9.0 mph14.5 kmh 29.95 in1014.2 mb - 0.00 in0.0 mm 0.01 in0.3 mm
10:00 AM 47.5°F8.6°C 45.6°F7.6°C 93% 2.4 mph NNW3.9 kmh NNW 7.0 mph11.3 kmh 29.94 in1013.9 mb - 0.00 in0.0 mm 0.01 in0.3 mm
10:15 AM 47.6°F8.7°C 45.7°F7.6°C 93% 4.1 mph E6.6 kmh E 9.0 mph14.5 kmh 29.95 in1014.2 mb - 0.00 in0.0 mm 0.01 in0.3 mm
10:30 AM 47.6°F8.7°C 45.4°F7.4°C 92% 3.1 mph WNW5.0 kmh WNW 4.0 mph6.4 kmh 29.95 in1014.2 mb - 0.00 in0.0 mm 0.01 in0.3 mm
10:45 AM 47.6°F8.7°C 45.4°F7.4°C 92% 1.5 mph N2.4 kmh N 2.0 mph3.2 kmh 29.96 in1014.6 mb - 0.00 in0.0 mm 0.01 in0.3 mm
11:00 AM 47.9°F8.8°C 46.0°F7.8°C 93% 1.7 mph NNE2.7 kmh NNE 4.0 mph6.4 kmh 29.95 in1014.2 mb - 0.01 in0.3 mm 0.02 in0.5 mm
11:15 AM 48.3°F9.1°C 46.4°F8.0°C 93% 2.8 mph NNW4.5 kmh NNW 5.0 mph8.0 kmh 29.96 in1014.6 mb - 0.00 in0.0 mm 0.02 in0.5 mm
11:30 AM 48.3°F9.1°C 46.4°F8.0°C 93% 3.3 mph NE5.3 kmh NE 4.0 mph6.4 kmh 29.96 in1014.6 mb - 0.00 in0.0 mm 0.02 in0.5 mm
11:45 AM 48.5°F9.2°C 46.2°F7.9°C 92% 6.9 mph NNW11.1 kmh NNW 10.0 mph16.1 kmh 29.96 in1014.6 mb - 0.00 in0.0 mm 0.02 in0.5 mm
12:00 PM 48.6°F9.2°C 46.4°F8.0°C 92% 3.4 mph NNE5.5 kmh NNE 4.0 mph6.4 kmh 29.96 in1014.6 mb - 0.00 in0.0 mm 0.02 in0.5 mm
12:15 PM 48.8°F9.3°C 46.6°F8.1°C 92% 1.7 mph NW2.7 kmh NW 3.0 mph4.8 kmh 29.96 in1014.6 mb - 0.01 in0.3 mm 0.03 in0.8 mm
12:30 PM 49.3°F9.6°C 47.4°F8.6°C 93% 1.2 mph N1.9 kmh N 2.0 mph3.2 kmh 29.95 in1014.2 mb - 0.00 in0.0 mm 0.03 in0.8 mm
12:45 PM 49.6°F9.8°C 47.7°F8.7°C 93% 2.1 mph NNE3.4 kmh NNE 8.0 mph12.9 kmh 29.95 in1014.2 mb - 0.00 in0.0 mm 0.03 in0.8 mm
01:00 PM 50.2°F10.1°C 48.3°F9.1°C 93% 1.7 mph ESE2.7 kmh ESE 3.0 mph4.8 kmh 29.94 in1013.9 mb - 0.00 in0.0 mm 0.03 in0.8 mm
01:15 PM 50.2°F10.1°C 48.0°F8.9°C 92% 1.6 mph ENE2.6 kmh ENE 4.0 mph6.4 kmh 29.93 in1013.5 mb - 0.00 in0.0 mm 0.03 in0.8 mm
01:30 PM 50.6°F10.3°C 48.6°F9.2°C 93% 1.3 mph ENE2.1 kmh ENE 4.0 mph6.4 kmh 29.92 in1013.2 mb - 0.00 in0.0 mm 0.03 in0.8 mm
01:45 PM 50.7°F10.4°C 48.5°F9.2°C 92% 2.6 mph NNE4.2 kmh NNE 3.0 mph4.8 kmh 29.92 in1013.2 mb - 0.01 in0.3 mm 0.04 in1.0 mm
02:00 PM 51.0°F10.6°C 48.8°F9.3°C 92% 1.5 mph N2.4 kmh N 2.0 mph3.2 kmh 29.92 in1013.2 mb - 0.00 in0.0 mm 0.04 in1.0 mm
02:15 PM 50.9°F10.5°C 48.4°F9.1°C 91% 1.6 mph NE2.6 kmh NE 2.0 mph3.2 kmh 29.92 in1013.2 mb - 0.00 in0.0 mm 0.04 in1.0 mm
02:30 PM 51.4°F10.8°C 49.2°F9.6°C 92% 3.1 mph NNE5.0 kmh NNE 5.0 mph8.0 kmh 29.93 in1013.5 mb - 0.00 in0.0 mm 0.04 in1.0 mm
02:45 PM 51.7°F10.9°C 48.9°F9.4°C 90% 2.2 mph NE3.5 kmh NE 3.0 mph4.8 kmh 29.93 in1013.5 mb - 0.00 in0.0 mm 0.04 in1.0 mm
03:00 PM 52.1°F11.2°C 49.3°F9.6°C 90% 2.4 mph NE3.9 kmh NE 4.0 mph6.4 kmh 29.92 in1013.2 mb - 0.00 in0.0 mm 0.04 in1.0 mm
03:15 PM 52.6°F11.4°C 49.5°F9.7°C 89% 0.5 mph NE0.8 kmh NE 1.0 mph1.6 kmh 29.92 in1013.2 mb - 0.00 in0.0 mm 0.04 in1.0 mm
03:30 PM 53.1°F11.7°C 49.6°F9.8°C 88% 2.2 mph NNE3.5 kmh NNE 3.0 mph4.8 kmh 29.92 in1013.2 mb - 0.00 in0.0 mm 0.04 in1.0 mm
03:45 PM 53.4°F11.9°C 50.0°F10.0°C 88% 0.8 mph NE1.3 kmh NE 2.0 mph3.2 kmh 29.91 in1012.9 mb - 0.00 in0.0 mm 0.04 in1.0 mm
04:00 PM 53.7°F12.1°C 50.3°F10.2°C 88% 2.0 mph NE3.2 kmh NE 2.0 mph3.2 kmh 29.92 in1013.2 mb - 0.00 in0.0 mm 0.04 in1.0 mm
04:15 PM 53.8°F12.1°C 50.0°F10.0°C 87% 1.2 mph NE1.9 kmh NE 3.0 mph4.8 kmh 29.92 in1013.2 mb - 0.00 in0.0 mm 0.04 in1.0 mm
04:30 PM 53.7°F12.1°C 49.9°F9.9°C 87% 0.2 mph ENE0.3 kmh ENE 1.0 mph1.6 kmh 29.92 in1013.2 mb - 0.00 in0.0 mm 0.04 in1.0 mm
04:45 PM 53.6°F12.0°C 49.8°F9.9°C 87% Calm Calm 1.0 mph1.6 kmh 29.93 in1013.5 mb - 0.00 in0.0 mm 0.04 in1.0 mm
05:00 PM 53.7°F12.1°C 50.2°F10.1°C 88% Calm Calm -- 29.93 in1013.5 mb - 0.00 in0.0 mm 0.04 in1.0 mm
05:15 PM 54.2°F12.3°C 50.7°F10.4°C 88% Calm Calm -- 29.93 in1013.5 mb - 0.00 in0.0 mm 0.04 in1.0 mm
05:30 PM 54.9°F12.7°C 51.7°F10.9°C 89% 0.3 mph ENE0.5 kmh ENE 1.0 mph1.6 kmh 29.93 in1013.5 mb - 0.00 in0.0 mm 0.04 in1.0 mm
05:45 PM 55.4°F13.0°C 52.2°F11.2°C 89% 1.3 mph ENE2.1 kmh ENE 2.0 mph3.2 kmh 29.93 in1013.5 mb - 0.00 in0.0 mm 0.04 in1.0 mm
06:00 PM 55.3°F12.9°C 51.5°F10.8°C 87% 0.6 mph ESE1.0 kmh ESE 1.0 mph1.6 kmh 29.93 in1013.5 mb - 0.00 in0.0 mm 0.04 in1.0 mm
06:15 PM 55.1°F12.8°C 51.0°F10.6°C 86% 1.3 mph ESE2.1 kmh ESE 1.0 mph1.6 kmh 29.93 in1013.5 mb - 0.00 in0.0 mm 0.04 in1.0 mm
06:30 PM 54.9°F12.7°C 51.1°F10.6°C 87% 1.4 mph ESE2.3 kmh ESE 2.0 mph3.2 kmh 29.93 in1013.5 mb - 0.00 in0.0 mm 0.04 in1.0 mm
06:45 PM 54.8°F12.7°C 51.6°F10.9°C 89% 1.1 mph ESE1.8 kmh ESE 2.0 mph3.2 kmh 29.93 in1013.5 mb - 0.00 in0.0 mm 0.04 in1.0 mm
07:00 PM 54.0°F12.2°C 50.8°F10.4°C 89% 2.9 mph E4.7 kmh E 3.0 mph4.8 kmh 29.94 in1013.9 mb - 0.00 in0.0 mm 0.04 in1.0 mm
07:15 PM 53.6°F12.0°C 50.4°F10.2°C 89% 1.1 mph E1.8 kmh E 2.0 mph3.2 kmh 29.94 in1013.9 mb - 0.00 in0.0 mm 0.04 in1.0 mm
07:30 PM 53.2°F11.8°C 50.0°F10.0°C 89% 0.9 mph E1.4 kmh E 2.0 mph3.2 kmh 29.95 in1014.2 mb - 0.00 in0.0 mm 0.04 in1.0 mm
07:45 PM 52.7°F11.5°C 49.5°F9.7°C 89% Calm Calm 1.0 mph1.6 kmh 29.95 in1014.2 mb - 0.00 in0.0 mm 0.04 in1.0 mm
08:00 PM 52.2°F11.2°C 49.4°F9.7°C 90% 0.6 mph E1.0 kmh E 2.0 mph3.2 kmh 29.97 in1014.9 mb - 0.00 in0.0 mm 0.04 in1.0 mm
08:15 PM 51.5°F10.8°C 48.3°F9.1°C 89% 2.7 mph N4.3 kmh N 3.0 mph4.8 kmh 29.97 in1014.9 mb - 0.00 in0.0 mm 0.04 in1.0 mm
08:30 PM 50.9°F10.5°C 45.6°F7.6°C 82% 1.8 mph NNE2.9 kmh NNE 5.0 mph8.0 kmh 29.97 in1014.9 mb - 0.00 in0.0 mm 0.04 in1.0 mm
08:45 PM 51.0°F10.6°C 43.7°F6.5°C 76% 2.4 mph WSW3.9 kmh WSW 4.0 mph6.4 kmh 29.97 in1014.9 mb - 0.00 in0.0 mm 0.04 in1.0 mm
09:00 PM 51.0°F10.6°C 43.7°F6.5°C 76% 1.7 mph W2.7 kmh W 3.0 mph4.8 kmh 29.97 in1014.9 mb - 0.00 in0.0 mm 0.04 in1.0 mm
09:15 PM 50.7°F10.4°C 42.4°F5.8°C 73% 1.7 mph W2.7 kmh W 4.0 mph6.4 kmh 29.98 in1015.2 mb - 0.00 in0.0 mm 0.04 in1.0 mm
09:30 PM 50.5°F10.3°C 42.5°F5.8°C 74% 1.3 mph NW2.1 kmh NW 2.0 mph3.2 kmh 29.98 in1015.2 mb - 0.00 in0.0 mm 0.04 in1.0 mm
09:45 PM 50.1°F10.1°C 42.1°F5.6°C 74% 1.3 mph WNW2.1 kmh WNW 4.0 mph6.4 kmh 29.98 in1015.2 mb - 0.00 in0.0 mm 0.04 in1.0 mm
10:00 PM 49.8°F9.9°C 42.2°F5.7°C 75% 1.5 mph NE2.4 kmh NE 6.0 mph9.7 kmh 29.98 in1015.2 mb - 0.00 in0.0 mm 0.04 in1.0 mm
10:15 PM 49.7°F9.8°C 41.7°F5.4°C 74% 4.2 mph NW6.8 kmh NW 9.0 mph14.5 kmh 29.98 in1015.2 mb - 0.00 in0.0 mm 0.04 in1.0 mm
10:30 PM 49.6°F9.8°C 41.3°F5.2°C 73% 2.1 mph W3.4 kmh W 4.0 mph6.4 kmh 29.99 in1015.6 mb - 0.00 in0.0 mm 0.04 in1.0 mm
10:45 PM 49.6°F9.8°C 41.3°F5.2°C 73% 2.1 mph W3.4 kmh W 4.0 mph6.4 kmh 29.98 in1015.2 mb - 0.00 in0.0 mm 0.04 in1.0 mm
11:00 PM 49.4°F9.7°C 41.1°F5.1°C 73% 2.6 mph W4.2 kmh W 8.0 mph12.9 kmh 29.98 in1015.2 mb - 0.00 in0.0 mm 0.04 in1.0 mm
11:15 PM 49.0°F9.4°C 41.1°F5.1°C 74% 2.8 mph NNW4.5 kmh NNW 7.0 mph11.3 kmh 29.98 in1015.2 mb - 0.00 in0.0 mm 0.04 in1.0 mm
11:30 PM 48.7°F9.3°C 41.1°F5.1°C 75% 2.9 mph NNE4.7 kmh NNE 4.0 mph6.4 kmh 29.98 in1015.2 mb - 0.00 in0.0 mm 0.04 in1.0 mm
11:45 PM 48.5°F9.2°C 40.9°F4.9°C 75% 4.0 mph N6.4 kmh N 9.0 mph14.5 kmh 29.99 in1015.6 mb - 0.00 in0.0 mm 0.04 in1.0 mm